createdAt,value
2018-06-25T00:02:26.179Z,13.60
2018-06-25T00:04:55.258Z,13.60
2018-06-25T00:07:24.311Z,13.60
2018-06-25T00:09:53.420Z,13.60
2018-06-25T00:12:23.519Z,13.60
2018-06-25T00:14:52.608Z,13.70
2018-06-25T00:17:21.734Z,13.60
2018-06-25T00:19:50.868Z,13.60
2018-06-25T00:22:19.959Z,13.50
2018-06-25T00:24:49.007Z,13.50
2018-06-25T00:27:18.075Z,13.50
2018-06-25T00:29:47.147Z,13.60
2018-06-25T00:32:16.262Z,13.50
2018-06-25T00:37:13.977Z,13.50
2018-06-25T00:39:43.063Z,13.60
2018-06-25T00:42:12.323Z,13.60
2018-06-25T00:44:41.342Z,13.60
2018-06-25T00:47:10.457Z,13.60
2018-06-25T00:49:39.516Z,13.60
2018-06-25T00:52:08.567Z,13.60
2018-06-25T00:54:37.604Z,13.60
2018-06-25T00:57:06.667Z,13.70
2018-06-25T00:59:47.086Z,13.70
2018-06-25T01:02:16.232Z,13.70
2018-06-25T01:04:45.336Z,13.70
2018-06-25T01:07:14.564Z,13.70
2018-06-25T01:09:43.614Z,13.70
2018-06-25T01:12:13.054Z,13.70
2018-06-25T01:14:42.271Z,13.70
2018-06-25T01:17:11.457Z,13.70
2018-06-25T01:19:40.530Z,13.70
2018-06-25T01:22:10.356Z,13.70
2018-06-25T01:24:39.983Z,13.80
2018-06-25T01:27:10.211Z,13.80
2018-06-25T01:29:40.631Z,13.80
2018-06-25T01:32:09.786Z,13.80
2018-06-25T01:34:38.931Z,13.70
2018-06-25T01:37:07.979Z,13.70
2018-06-25T01:39:37.042Z,13.70
2018-06-25T01:42:06.148Z,13.70
2018-06-25T01:44:35.227Z,13.70
2018-06-25T01:47:04.299Z,13.70
2018-06-25T01:49:33.440Z,13.70
2018-06-25T01:52:02.529Z,13.70
2018-06-25T01:54:31.608Z,13.60
2018-06-25T01:57:00.683Z,13.70
2018-06-25T01:59:29.730Z,13.70
2018-06-25T02:01:58.827Z,13.70
2018-06-25T02:04:27.949Z,13.80
2018-06-25T02:06:56.990Z,13.80
2018-06-25T02:09:26.103Z,13.90
2018-06-25T02:11:55.203Z,13.90
2018-06-25T02:14:24.304Z,14.00
2018-06-25T02:16:53.947Z,14.00
2018-06-25T02:19:23.119Z,14.00
2018-06-25T02:21:52.184Z,14.10
2018-06-25T02:24:21.246Z,14.10
2018-06-25T02:26:50.353Z,14.10
2018-06-25T02:29:19.423Z,14.10
2018-06-25T02:31:48.496Z,14.20
2018-06-25T02:34:18.608Z,14.20
2018-06-25T02:36:47.680Z,14.20
2018-06-25T02:39:16.749Z,14.20
2018-06-25T02:41:45.832Z,14.30
2018-06-25T02:44:14.889Z,14.30
2018-06-25T02:46:43.970Z,14.30
2018-06-25T02:49:13.022Z,14.40
2018-06-25T02:51:42.108Z,14.30
2018-06-25T02:54:11.247Z,14.30
2018-06-25T02:56:40.343Z,14.30
2018-06-25T02:59:09.420Z,14.10
2018-06-25T03:01:44.563Z,14.10
2018-06-25T03:04:13.631Z,14.10
2018-06-25T03:06:42.719Z,14.10
2018-06-25T03:09:12.332Z,14.20
2018-06-25T03:11:41.423Z,14.20
2018-06-25T03:14:10.494Z,14.20
2018-06-25T03:16:39.599Z,14.20
2018-06-25T03:19:08.684Z,14.20
2018-06-25T03:21:37.719Z,14.20
2018-06-25T03:24:06.818Z,14.20
2018-06-25T03:26:35.900Z,14.20
2018-06-25T03:29:05.015Z,14.20
2018-06-25T03:31:34.463Z,14.10
2018-06-25T03:34:03.579Z,14.10
2018-06-25T03:36:32.660Z,14.10
2018-06-25T03:39:01.793Z,14.10
2018-06-25T03:41:31.711Z,14.00
2018-06-25T03:44:00.807Z,14.00
2018-06-25T03:46:29.896Z,14.00
2018-06-25T03:48:59.032Z,14.00
2018-06-25T03:51:28.132Z,14.10
2018-06-25T03:53:57.213Z,14.10
2018-06-25T03:56:26.595Z,14.00
2018-06-25T03:58:55.739Z,14.00
2018-06-25T04:01:24.829Z,14.10
2018-06-25T04:03:54.244Z,14.10
2018-06-25T04:06:23.443Z,14.10
2018-06-25T04:08:52.481Z,14.10
2018-06-25T04:11:21.778Z,14.20
2018-06-25T04:13:50.851Z,14.20
2018-06-25T04:16:19.933Z,14.20
2018-06-25T04:18:54.426Z,14.10
2018-06-25T04:21:23.543Z,14.20
2018-06-25T04:23:52.611Z,14.30
2018-06-25T04:26:21.691Z,14.30
2018-06-25T04:28:50.811Z,14.30
2018-06-25T04:31:19.920Z,14.40
2018-06-25T04:33:49.007Z,14.40
2018-06-25T04:36:18.078Z,14.50
2018-06-25T04:38:47.155Z,14.50
2018-06-25T04:41:16.351Z,14.50
2018-06-25T04:43:45.420Z,14.50
2018-06-25T04:46:14.510Z,14.50
2018-06-25T04:48:43.583Z,14.50
2018-06-25T04:51:12.657Z,14.50
2018-06-25T04:53:42.407Z,14.50
2018-06-25T04:56:11.731Z,14.60
2018-06-25T04:58:40.871Z,14.60
2018-06-25T05:01:10.096Z,14.70
2018-06-25T05:03:39.331Z,14.70
2018-06-25T05:06:08.403Z,14.80
2018-06-25T05:11:06.172Z,15.00
2018-06-25T05:13:35.241Z,15.10
2018-06-25T05:16:04.394Z,15.10
2018-06-25T05:18:33.474Z,15.00
2018-06-25T05:21:02.707Z,15.10
2018-06-25T05:23:31.837Z,15.20
2018-06-25T05:26:00.948Z,15.40
2018-06-25T05:28:30.032Z,15.60
2018-06-25T05:30:59.122Z,15.70
2018-06-25T05:33:28.195Z,15.60
2018-06-25T05:35:57.292Z,15.70
2018-06-25T05:38:26.360Z,15.80
2018-06-25T05:40:55.555Z,15.90
2018-06-25T05:43:24.656Z,16.00
2018-06-25T05:45:54.016Z,16.10
2018-06-25T05:48:23.099Z,16.20
2018-06-25T05:50:52.191Z,16.20
2018-06-25T05:53:21.479Z,16.30
2018-06-25T05:55:50.574Z,16.30
2018-06-25T05:58:19.649Z,16.30
2018-06-25T06:00:48.795Z,16.40
2018-06-25T06:03:17.906Z,16.50
2018-06-25T06:05:47.020Z,16.40
2018-06-25T06:08:16.131Z,16.30
2018-06-25T06:10:45.276Z,16.40
2018-06-25T06:13:14.366Z,16.50
2018-06-25T06:15:43.497Z,16.60
2018-06-25T06:18:12.545Z,16.80
2018-06-25T06:20:41.825Z,16.80
2018-06-25T06:23:10.921Z,16.60
2018-06-25T06:25:40.005Z,16.60
2018-06-25T06:28:09.321Z,16.80
2018-06-25T06:30:38.424Z,17.00
2018-06-25T06:33:07.559Z,17.00
2018-06-25T06:35:36.643Z,17.10
2018-06-25T06:38:05.740Z,17.20
2018-06-25T06:40:34.889Z,17.30
2018-06-25T06:43:04.151Z,17.30
2018-06-25T06:45:33.278Z,17.00
2018-06-25T06:48:02.344Z,16.70
2018-06-25T06:50:31.402Z,16.60
2018-06-25T06:53:00.491Z,16.40
2018-06-25T06:55:29.734Z,16.50
2018-06-25T06:57:58.831Z,16.70
2018-06-25T07:00:27.946Z,16.70
2018-06-25T07:02:57.035Z,16.70
2018-06-25T07:05:26.131Z,16.70
2018-06-25T07:07:55.214Z,16.70
2018-06-25T07:10:24.360Z,17.00
2018-06-25T07:12:53.459Z,17.20
2018-06-25T07:15:22.588Z,17.30
2018-06-25T07:17:51.703Z,17.30
2018-06-25T07:20:20.779Z,17.50
2018-06-25T07:22:49.883Z,17.90
2018-06-25T07:25:18.972Z,18.20
2018-06-25T07:27:48.063Z,18.30
2018-06-25T07:30:17.147Z,18.40
2018-06-25T07:32:46.220Z,18.50
2018-06-25T07:35:15.269Z,18.50
2018-06-25T07:37:44.400Z,18.50
2018-06-25T07:40:13.531Z,18.40
2018-06-25T07:42:42.580Z,18.50
2018-06-25T07:45:11.763Z,18.70
2018-06-25T07:47:40.879Z,18.60
2018-06-25T07:50:10.014Z,18.80
2018-06-25T07:52:39.124Z,19.00
2018-06-25T07:55:08.179Z,19.40
2018-06-25T07:57:37.216Z,19.50
2018-06-25T08:00:06.543Z,19.20
2018-06-25T08:02:35.638Z,19.20
2018-06-25T08:05:04.939Z,19.40
2018-06-25T08:07:34.076Z,19.00
2018-06-25T08:10:03.368Z,19.10
2018-06-25T08:12:32.389Z,19.40
2018-06-25T08:15:01.515Z,19.60
2018-06-25T08:17:30.578Z,19.40
2018-06-25T08:19:59.659Z,19.30
2018-06-25T08:22:28.743Z,19.10
2018-06-25T08:24:58.135Z,19.10
2018-06-25T08:27:27.210Z,19.20
2018-06-25T08:29:56.284Z,19.20
2018-06-25T08:34:54.060Z,19.30
2018-06-25T08:37:23.148Z,19.20
2018-06-25T08:39:52.228Z,19.00
2018-06-25T08:42:21.319Z,19.10
2018-06-25T08:44:50.442Z,19.20
2018-06-25T08:47:19.539Z,19.20
2018-06-25T08:49:48.714Z,19.30
2018-06-25T08:52:17.820Z,19.20
2018-06-25T08:54:46.902Z,19.20
2018-06-25T08:57:16.012Z,19.20
2018-06-25T08:59:45.068Z,19.20
2018-06-25T09:02:14.433Z,19.20
2018-06-25T09:04:43.914Z,19.00
2018-06-25T09:07:12.999Z,18.80
2018-06-25T09:09:42.253Z,18.70
2018-06-25T09:12:11.283Z,19.00
2018-06-25T09:14:40.362Z,19.40
2018-06-25T09:17:09.475Z,19.70
2018-06-25T09:19:38.578Z,20.10
2018-06-25T09:22:07.647Z,20.60
2018-06-25T09:24:36.744Z,21.00
2018-06-25T09:27:06.127Z,21.00
2018-06-25T09:29:35.195Z,21.10
2018-06-25T09:32:04.321Z,21.10
2018-06-25T09:34:38.807Z,21.10
2018-06-25T09:37:07.916Z,21.00
2018-06-25T09:39:36.978Z,20.60
2018-06-25T09:44:34.772Z,19.80
2018-06-25T09:47:04.027Z,19.80
2018-06-25T09:49:33.007Z,19.90
2018-06-25T09:52:02.239Z,20.00
2018-06-25T09:54:31.279Z,20.00
2018-06-25T09:57:00.367Z,19.60
2018-06-25T09:59:29.551Z,19.20
2018-06-25T10:01:58.640Z,19.30
2018-06-25T10:04:27.687Z,19.60
2018-06-25T10:06:56.792Z,19.90
2018-06-25T10:09:25.856Z,20.20
2018-06-25T10:11:55.027Z,20.50
2018-06-25T10:14:24.119Z,20.70
2018-06-25T10:16:53.284Z,20.80
2018-06-25T10:19:22.364Z,20.80
2018-06-25T10:21:51.446Z,20.70
2018-06-25T10:24:20.537Z,20.50
2018-06-25T10:26:49.595Z,20.40
2018-06-25T10:29:18.703Z,20.30
2018-06-25T10:31:48.008Z,20.10
2018-06-25T10:34:17.055Z,20.00
2018-06-25T10:36:46.128Z,19.80
2018-06-25T10:39:15.217Z,19.20
2018-06-25T10:41:44.422Z,19.30
2018-06-25T10:44:14.342Z,19.60
2018-06-25T10:46:43.408Z,20.10
2018-06-25T10:49:12.495Z,20.40
2018-06-25T10:54:10.382Z,20.00
2018-06-25T10:56:39.463Z,20.10
2018-06-25T10:59:08.557Z,20.30
2018-06-25T11:01:37.607Z,20.40
2018-06-25T11:04:06.673Z,20.60
2018-06-25T11:06:35.703Z,21.10
2018-06-25T11:09:08.248Z,21.40
2018-06-25T11:11:37.314Z,21.20
2018-06-25T11:14:06.388Z,20.90
2018-06-25T11:16:35.487Z,20.90
2018-06-25T11:19:04.555Z,20.80
2018-06-25T11:21:33.640Z,20.70
2018-06-25T11:24:02.696Z,20.30
2018-06-25T11:26:31.755Z,20.00
2018-06-25T11:29:00.859Z,19.40
2018-06-25T11:31:29.940Z,18.90
2018-06-25T11:33:59.004Z,18.70
2018-06-25T11:36:28.064Z,18.80
2018-06-25T11:38:57.151Z,18.90
2018-06-25T11:41:26.256Z,19.00
2018-06-25T11:43:55.358Z,19.20
2018-06-25T11:46:24.419Z,19.50
2018-06-25T11:48:53.921Z,19.70
2018-06-25T11:51:22.992Z,19.80
2018-06-25T11:53:52.187Z,19.80
2018-06-25T11:56:21.287Z,19.50
2018-06-25T11:58:50.370Z,19.40
2018-06-25T12:01:19.541Z,19.30
2018-06-25T12:03:48.667Z,19.40
2018-06-25T12:06:17.840Z,19.30
2018-06-25T12:08:47.007Z,19.20
2018-06-25T12:11:16.195Z,18.90
2018-06-25T12:13:45.335Z,19.10
2018-06-25T12:16:14.420Z,19.50
2018-06-25T12:18:44.086Z,19.80
2018-06-25T12:21:13.343Z,19.80
2018-06-25T12:23:42.517Z,19.40
2018-06-25T12:26:11.576Z,19.20
2018-06-25T12:28:40.634Z,19.00
2018-06-25T12:31:09.783Z,19.20
2018-06-25T12:33:38.940Z,19.20
2018-06-25T12:36:10.060Z,19.40
2018-06-25T12:38:39.144Z,19.30
2018-06-25T12:41:08.859Z,19.50
2018-06-25T12:43:38.156Z,19.60
2018-06-25T12:46:07.462Z,19.60
2018-06-25T12:48:36.715Z,19.50
2018-06-25T12:51:06.043Z,19.60
2018-06-25T12:53:35.184Z,19.80
2018-06-25T12:56:04.571Z,19.90
2018-06-25T12:58:33.674Z,19.70
2018-06-25T13:01:03.093Z,19.60
2018-06-25T13:03:32.372Z,19.50
2018-06-25T13:06:01.472Z,19.50
2018-06-25T13:08:30.591Z,19.70
2018-06-25T13:10:59.688Z,19.80
2018-06-25T13:13:28.792Z,20.10
2018-06-25T13:15:58.051Z,20.30
2018-06-25T13:18:27.104Z,20.30
2018-06-25T13:20:56.232Z,20.30
2018-06-25T13:23:25.325Z,20.40
2018-06-25T13:25:54.523Z,20.60
2018-06-25T13:28:23.940Z,20.80
2018-06-25T13:30:53.072Z,21.10
2018-06-25T13:33:22.327Z,20.70
2018-06-25T13:35:51.438Z,20.60
2018-06-25T13:38:20.610Z,20.30
2018-06-25T13:40:49.763Z,20.20
2018-06-25T13:43:18.866Z,20.30
2018-06-25T13:45:47.995Z,19.90
2018-06-25T13:48:17.153Z,20.00
2018-06-25T13:50:46.216Z,20.30
2018-06-25T13:53:15.303Z,20.70
2018-06-25T13:55:44.379Z,20.80
2018-06-25T13:58:13.476Z,21.10
2018-06-25T14:00:42.627Z,21.20
2018-06-25T14:03:11.668Z,21.30
2018-06-25T14:05:40.924Z,21.20
2018-06-25T14:08:10.116Z,21.20
2018-06-25T14:10:39.219Z,20.90
2018-06-25T14:13:08.350Z,21.10
2018-06-25T14:15:37.423Z,21.50
2018-06-25T14:18:06.830Z,21.80
2018-06-25T14:20:36.057Z,22.00
2018-06-25T14:23:05.156Z,21.60
2018-06-25T14:25:39.576Z,21.60
2018-06-25T14:28:13.985Z,21.00
2018-06-25T14:30:48.376Z,20.80
2018-06-25T14:33:21.666Z,20.60
2018-06-25T14:38:19.435Z,20.80
2018-06-25T14:40:48.590Z,20.80
2018-06-25T14:43:17.719Z,20.80
2018-06-25T14:45:46.858Z,20.90
2018-06-25T14:48:16.003Z,21.30
2018-06-25T14:50:45.053Z,21.40
2018-06-25T14:53:14.158Z,21.50
2018-06-25T14:55:43.236Z,21.60
2018-06-25T15:00:41.079Z,21.60
2018-06-25T15:03:10.151Z,21.70
2018-06-25T15:05:39.276Z,21.10
2018-06-25T15:08:08.338Z,21.30
2018-06-25T15:10:37.441Z,21.70
2018-06-25T15:13:06.538Z,21.90
2018-06-25T15:15:35.712Z,21.40
2018-06-25T15:18:05.559Z,21.20
2018-06-25T15:20:34.683Z,20.90
2018-06-25T15:23:03.801Z,20.60
2018-06-25T15:25:33.227Z,20.30
2018-06-25T15:28:02.284Z,20.10
2018-06-25T15:30:31.369Z,20.00
2018-06-25T15:33:00.477Z,20.00
2018-06-25T15:37:58.335Z,20.30
2018-06-25T15:40:27.521Z,20.30
2018-06-25T15:42:56.603Z,20.10
2018-06-25T15:45:25.734Z,20.20
2018-06-25T15:47:54.797Z,20.30
2018-06-25T15:50:23.871Z,20.40
2018-06-25T15:52:53.004Z,20.80
2018-06-25T15:55:22.144Z,20.90
2018-06-25T15:57:51.229Z,21.10
2018-06-25T16:00:20.299Z,21.20
2018-06-25T16:02:49.359Z,21.10
2018-06-25T16:05:18.778Z,20.80
2018-06-25T16:07:47.871Z,20.90
2018-06-25T16:10:16.956Z,21.20
2018-06-25T16:12:46.061Z,21.40
2018-06-25T16:15:15.186Z,21.10
2018-06-25T16:17:44.443Z,21.30
2018-06-25T16:20:13.659Z,22.00
2018-06-25T16:22:42.764Z,22.20
2018-06-25T16:25:11.820Z,21.90
2018-06-25T16:27:40.914Z,21.90
2018-06-25T16:30:10.005Z,22.10
2018-06-25T16:32:39.063Z,22.80
2018-06-25T16:35:08.168Z,23.20
2018-06-25T16:37:37.235Z,23.50
2018-06-25T16:40:06.336Z,23.30
2018-06-25T16:42:35.436Z,23.40
2018-06-25T16:45:04.557Z,23.60
2018-06-25T16:47:33.685Z,23.90
2018-06-25T16:50:02.824Z,23.20
2018-06-25T16:52:31.895Z,22.90
2018-06-25T16:55:01.181Z,22.60
2018-06-25T16:57:30.311Z,22.20
2018-06-25T16:59:59.567Z,22.90
2018-06-25T17:02:28.777Z,23.60
2018-06-25T17:04:57.895Z,23.90
2018-06-25T17:07:27.005Z,24.00
2018-06-25T17:09:56.123Z,24.40
2018-06-25T17:12:25.218Z,24.80
2018-06-25T17:14:54.339Z,25.10
2018-06-25T17:17:23.605Z,25.00
2018-06-25T17:19:52.909Z,24.80
2018-06-25T17:22:21.998Z,24.00
2018-06-25T17:24:51.445Z,24.00
2018-06-25T17:27:20.532Z,23.50
2018-06-25T17:29:49.817Z,22.50
2018-06-25T17:32:19.004Z,21.80
2018-06-25T17:34:48.290Z,22.10
2018-06-25T17:37:17.652Z,23.30
2018-06-25T17:39:46.993Z,23.90
2018-06-25T17:42:16.314Z,24.30
2018-06-25T17:44:45.584Z,23.60
2018-06-25T17:47:14.704Z,22.80
2018-06-25T17:49:43.949Z,21.80
2018-06-25T17:52:13.326Z,21.00
2018-06-25T17:54:42.533Z,20.80
2018-06-25T17:57:11.812Z,20.70
2018-06-25T17:59:41.127Z,20.50
2018-06-25T18:02:10.377Z,20.40
2018-06-25T18:04:39.620Z,20.40
2018-06-25T18:07:08.711Z,20.30
2018-06-25T18:09:37.861Z,20.20
2018-06-25T18:12:07.225Z,20.00
2018-06-25T18:14:36.378Z,19.80
2018-06-25T18:17:05.502Z,19.70
2018-06-25T18:19:34.608Z,19.70
2018-06-25T18:22:03.756Z,19.50
2018-06-25T18:24:33.256Z,19.40
2018-06-25T18:27:02.727Z,19.20
2018-06-25T18:29:31.890Z,19.30
2018-06-25T18:32:01.209Z,19.20
2018-06-25T18:34:30.463Z,19.30
2018-06-25T18:36:59.628Z,19.20
2018-06-25T18:39:28.779Z,19.20
2018-06-25T18:41:57.923Z,19.10
2018-06-25T18:44:27.199Z,19.00
2018-06-25T18:46:56.404Z,18.90
2018-06-25T18:49:25.506Z,18.80
2018-06-25T18:51:54.588Z,18.80
2018-06-25T18:54:23.697Z,18.70
2018-06-25T18:56:52.895Z,18.80
2018-06-25T18:59:21.979Z,18.80
2018-06-25T19:01:51.159Z,18.90
2018-06-25T19:04:20.603Z,18.80
2018-06-25T19:06:49.708Z,18.80
2018-06-25T19:09:18.885Z,18.70
2018-06-25T19:11:47.969Z,18.70
2018-06-25T19:14:17.070Z,18.60
2018-06-25T19:16:46.171Z,18.50
2018-06-25T19:19:15.367Z,18.50
2018-06-25T19:21:44.447Z,18.50
2018-06-25T19:24:13.599Z,18.50
2018-06-25T19:26:42.816Z,18.50
2018-06-25T19:29:12.706Z,18.50
2018-06-25T19:31:41.874Z,18.40
2018-06-25T19:34:11.212Z,18.30
2018-06-25T19:36:40.426Z,18.30
2018-06-25T19:39:11.588Z,18.30
2018-06-25T19:41:41.016Z,18.30
2018-06-25T19:44:11.720Z,18.20
2018-06-25T19:46:41.102Z,18.20
2018-06-25T19:49:10.191Z,18.10
2018-06-25T19:51:39.443Z,18.10
2018-06-25T19:54:09.327Z,17.90
2018-06-25T19:56:38.392Z,17.80
2018-06-25T19:59:07.527Z,17.70
2018-06-25T20:01:36.676Z,17.40
2018-06-25T20:04:05.813Z,17.20
2018-06-25T20:06:34.928Z,17.10
2018-06-25T20:09:06.501Z,17.10
2018-06-25T20:11:35.725Z,16.90
2018-06-25T20:14:05.182Z,16.70
2018-06-25T20:16:34.448Z,16.70
2018-06-25T20:19:03.560Z,16.60
2018-06-25T20:21:32.771Z,16.50
2018-06-25T20:24:02.519Z,16.40
2018-06-25T20:26:31.688Z,16.40
2018-06-25T20:29:00.852Z,16.40
2018-06-25T20:31:29.928Z,16.50
2018-06-25T20:33:59.016Z,16.50
2018-06-25T20:36:28.123Z,16.50
2018-06-25T20:38:57.195Z,16.40
2018-06-25T20:43:55.167Z,16.30
2018-06-25T20:46:24.283Z,16.20
2018-06-25T20:48:53.399Z,16.10
2018-06-25T20:51:23.099Z,16.00
2018-06-25T20:53:52.163Z,16.00
2018-06-25T20:56:21.274Z,15.90
2018-06-25T20:58:50.417Z,15.80
2018-06-25T21:01:19.780Z,15.70
2018-06-25T21:03:48.856Z,15.70
2018-06-25T21:06:17.930Z,15.70
2018-06-25T21:08:47.111Z,15.70
2018-06-25T21:11:16.212Z,15.70
2018-06-25T21:13:45.334Z,15.70
2018-06-25T21:16:14.427Z,15.70
2018-06-25T21:18:43.731Z,15.60
2018-06-25T21:21:12.822Z,15.70
2018-06-25T21:23:42.008Z,15.70
2018-06-25T21:26:11.081Z,15.70
2018-06-25T21:28:40.184Z,15.70
2018-06-25T21:31:09.377Z,15.60
2018-06-25T21:33:38.483Z,15.50
2018-06-25T21:36:07.667Z,15.60
2018-06-25T21:38:36.687Z,15.60
2018-06-25T21:41:05.920Z,15.60
2018-06-25T21:43:35.005Z,15.50
2018-06-25T21:46:04.063Z,15.50
2018-06-25T21:48:33.128Z,15.60
2018-06-25T21:51:02.249Z,15.50
2018-06-25T21:53:31.324Z,15.60
2018-06-25T21:56:00.439Z,15.50
2018-06-25T21:58:29.543Z,15.50
2018-06-25T22:00:58.599Z,15.40
2018-06-25T22:03:27.675Z,15.40
2018-06-25T22:05:56.851Z,15.30
2018-06-25T22:08:25.962Z,15.40
2018-06-25T22:10:55.092Z,15.40
2018-06-25T22:15:52.899Z,15.40
2018-06-25T22:18:21.987Z,15.20
2018-06-25T22:20:51.056Z,15.10
2018-06-25T22:23:20.144Z,15.00
2018-06-25T22:25:49.234Z,15.00
2018-06-25T22:28:18.330Z,14.90
2018-06-25T22:30:47.503Z,14.90
2018-06-25T22:33:16.810Z,14.90
2018-06-25T22:35:45.979Z,15.00
2018-06-25T22:38:15.082Z,15.00
2018-06-25T22:40:44.218Z,14.90
2018-06-25T22:43:13.268Z,15.00
2018-06-25T22:45:42.338Z,14.90
2018-06-25T22:48:11.422Z,14.80
2018-06-25T22:50:40.495Z,14.80
2018-06-25T22:53:09.611Z,14.70
2018-06-25T22:55:38.701Z,14.60
2018-06-25T22:58:07.816Z,14.60
2018-06-25T23:00:36.909Z,14.50
2018-06-25T23:03:06.427Z,14.50
2018-06-25T23:05:35.603Z,14.50
2018-06-25T23:08:04.682Z,14.60
2018-06-25T23:10:33.751Z,14.50
2018-06-25T23:13:02.909Z,14.40
2018-06-25T23:15:32.005Z,14.50
2018-06-25T23:18:01.204Z,14.50
2018-06-25T23:20:30.302Z,14.50
2018-06-25T23:22:59.363Z,14.50
2018-06-25T23:25:28.480Z,14.60
2018-06-25T23:27:57.710Z,14.60
2018-06-25T23:30:26.825Z,14.50
2018-06-25T23:32:55.880Z,14.40
2018-06-25T23:35:24.961Z,14.40
2018-06-25T23:37:54.047Z,14.40
2018-06-25T23:40:23.124Z,14.40
2018-06-25T23:42:52.187Z,14.40
2018-06-25T23:45:21.344Z,14.40
2018-06-25T23:47:50.392Z,14.50
2018-06-25T23:50:19.447Z,14.40
2018-06-25T23:52:48.544Z,14.40
2018-06-25T23:55:17.655Z,14.30
2018-06-25T23:57:46.761Z,14.20
